Time;durP1;ratioP1;P1;durP2;ratioP2;P2;SDS_P1;SDS_P2;PMS_P1;PMS_P2;Temp;Humidity;BMP_temperature;BMP_pressure;BME280_temperature;BME280_humidity;BME280_pressure;Samples;Min_cycle;Max_cycle;Signal;HPM_P1;HPM_P2
2023/04/26 00:00:12;;;;;;;11.70;8.90;;;8.50;99.90;;;7.87;71.98;101689.34;5116411;28;20078;-73
2023/04/26 00:02:41;;;;;;;14.93;8.52;;;8.50;99.90;;;8.71;71.77;101821.94;5116347;28;20142;-73
2023/04/26 00:05:09;;;;;;;14.10;9.20;;;8.50;99.90;;;8.67;71.91;101828.00;5116219;28;20122;-72
2023/04/26 00:07:38;;;;;;;16.27;8.07;;;8.50;99.90;;;8.53;72.13;101826.84;5116069;28;20039;-72
2023/04/26 00:10:08;;;;;;;11.65;8.18;;;8.30;99.90;;;8.62;72.60;101816.44;5116318;28;20130;-72
2023/04/26 00:12:39;;;;;;;8.88;7.78;;;8.30;99.90;;;8.67;73.17;101822.72;5116106;28;20496;-72
2023/04/26 00:15:09;;;;;;;13.10;8.20;;;8.30;99.90;;;8.59;73.35;101819.06;5116630;28;20100;-72
2023/04/26 00:17:38;;;;;;;13.23;8.63;;;8.30;99.90;;;8.62;73.55;101817.34;5116334;28;20523;-72
2023/04/26 00:20:10;;;;;;;9.85;8.00;;;8.30;99.90;;;8.67;73.58;101820.94;5097994;28;20051;-73
2023/04/26 00:22:38;;;;;;;14.82;8.93;;;8.40;99.90;;;8.60;73.68;101823.44;5098004;28;20109;-72
2023/04/26 00:25:08;;;;;;;14.85;8.75;;;8.40;99.90;;;8.64;72.72;101827.91;5116026;28;20039;-72
2023/04/26 00:27:37;;;;;;;15.80;8.63;;;8.40;99.90;;;8.69;72.67;101828.91;5116413;28;20499;-72
2023/04/26 00:30:08;;;;;;;20.30;9.30;;;8.40;99.90;;;8.70;71.62;101826.28;5116008;28;20404;-73
2023/04/26 00:32:36;;;;;;;14.10;8.38;;;8.50;99.90;;;8.76;71.72;101828.16;5096913;28;20497;-73
2023/04/26 00:35:07;;;;;;;14.10;9.35;;;8.50;99.90;;;8.75;71.83;101821.97;5116119;28;20071;-72
2023/04/26 00:37:36;;;;;;;12.73;8.87;;;8.60;99.90;;;8.78;71.79;101819.41;5116000;28;20047;-73
2023/04/26 00:40:05;;;;;;;13.18;8.65;;;8.60;99.90;;;8.81;71.21;101813.28;5097541;28;20471;-73
2023/04/26 00:42:34;;;;;;;13.93;8.82;;;8.70;99.90;;;8.93;71.03;101821.44;5097678;28;20048;-73
2023/04/26 00:45:06;;;;;;;15.55;9.27;;;8.70;99.90;;;8.92;70.50;101823.16;5115630;28;20043;-73
2023/04/26 00:47:35;;;;;;;19.67;9.63;;;8.70;99.90;;;8.98;70.91;101819.78;5115234;28;20071;-73
2023/04/26 00:50:07;;;;;;;19.05;9.57;;;8.70;99.90;;;8.99;70.06;101819.78;5097314;28;20101;-73
2023/04/26 00:52:35;;;;;;;15.68;9.10;;;8.70;99.90;;;9.00;70.17;101818.06;5115453;28;20039;-72
2023/04/26 00:55:05;;;;;;;13.18;8.52;;;8.80;99.90;;;8.94;69.95;101816.16;5115704;28;20040;-72
2023/04/26 00:57:34;;;;;;;13.25;8.55;;;8.80;99.90;;;8.84;70.99;101822.16;5115603;28;20082;-73
2023/04/26 01:00:05;;;;;;;17.52;9.50;;;8.70;99.90;;;8.56;71.75;101792.59;5115209;28;20067;-72
2023/04/26 01:02:34;;;;;;;15.73;9.52;;;8.60;99.90;;;8.75;72.07;101821.97;5115251;28;20032;-72
2023/04/26 01:05:03;;;;;;;15.23;10.80;;;8.60;99.90;;;8.70;72.31;101823.66;5115388;28;20042;-73
2023/04/26 01:07:32;;;;;;;15.93;10.63;;;8.60;99.90;;;8.68;72.49;101821.84;5097086;28;20075;-73
2023/04/26 01:10:04;;;;;;;15.05;10.32;;;8.50;99.90;;;8.62;72.42;101811.19;5096988;28;20044;-73
2023/04/26 01:12:33;;;;;;;17.23;10.35;;;8.50;99.90;;;8.60;72.39;101810.25;5115626;28;20100;-73
2023/04/26 01:15:01;;;;;;;19.42;11.20;;;8.50;99.90;;;8.63;72.38;101819.13;5115203;28;20039;-73
2023/04/26 01:17:31;;;;;;;14.43;9.50;;;8.50;99.90;;;8.62;72.32;101817.34;5115160;28;20031;-73
2023/04/26 01:20:00;;;;;;;15.25;9.73;;;8.50;99.90;;;8.55;72.74;101814.56;5096756;28;20057;-72
2023/04/26 01:22:34;;;;;;;22.08;10.65;;;8.50;99.90;;;8.61;72.79;101819.97;5096844;28;20043;-73
2023/04/26 01:25:06;;;;;;;19.73;10.85;;;8.40;99.90;;;8.61;72.76;101830.50;5096759;28;20051;-72
2023/04/26 01:27:35;;;;;;;16.30;10.63;;;8.40;99.90;;;8.60;72.86;101826.97;5096769;28;20060;-73
2023/04/26 01:30:04;;;;;;;18.83;10.38;;;8.40;99.90;;;8.55;72.58;101809.31;5096547;28;20404;-73
2023/04/26 01:32:33;;;;;;;16.83;10.32;;;8.40;99.90;;;8.54;72.13;101802.22;5114616;28;20567;-73
2023/04/26 01:35:04;;;;;;;16.23;9.90;;;8.40;99.90;;;8.62;72.03;101816.44;5114692;28;20039;-73
2023/04/26 01:37:33;;;;;;;;;;;8.50;99.90;;;8.59;72.44;101816.41;5096976;28;20082;-72
2023/04/26 01:40:04;;;;;;;19.08;10.13;;;8.50;99.90;;;8.64;72.07;101820.91;5114662;28;19942;-73
2023/04/26 01:42:33;;;;;;;19.30;10.82;;;8.50;99.90;;;8.66;72.31;101820.94;5114493;28;20486;-72
2023/04/26 01:45:01;;;;;;;21.08;10.25;;;8.50;99.90;;;8.64;72.20;101812.09;5114576;28;20473;-73
2023/04/26 01:47:50;;;;;;;19.40;10.07;;;8.50;99.90;;;8.67;72.52;101814.81;5114089;28;20083;-73
2023/04/26 01:50:18;;;;;;;15.07;9.80;;;8.50;99.90;;;8.68;72.34;101816.56;5096137;28;20052;-72
2023/04/26 01:52:48;;;;;;;17.55;10.48;;;8.50;99.90;;;8.67;72.92;101815.69;5114197;28;20392;-73
2023/04/26 01:55:19;;;;;;;16.48;11.18;;;8.50;99.90;;;8.66;72.76;101813.03;5095850;28;20043;-73
2023/04/26 01:57:48;;;;;;;18.55;11.43;;;8.50;99.90;;;8.68;72.97;101811.28;5095976;28;20078;-73
2023/04/26 02:00:16;;;;;;;23.42;11.45;;;8.50;99.90;;;8.70;73.39;101810.47;5113055;28;20081;-73
2023/04/26 02:02:48;;;;;;;17.80;10.45;;;8.50;99.90;;;8.67;73.44;101814.81;5095994;28;20134;-73
2023/04/26 02:05:17;;;;;;;15.95;9.38;;;8.50;99.90;;;8.54;74.34;101815.41;5095933;28;20050;-73
2023/04/26 02:07:45;;;;;;;15.02;9.98;;;8.40;99.90;;;8.48;74.87;101817.97;5114232;28;20447;-73
2023/04/26 02:10:15;;;;;;;20.92;10.60;;;8.30;99.90;;;8.38;74.44;101810.72;5114112;28;20047;-73
2023/04/26 02:12:45;;;;;;;15.65;9.50;;;8.20;99.90;;;8.34;74.89;101815.06;5095767;28;20075;-73
2023/04/26 02:15:14;;;;;;;14.20;9.88;;;8.20;99.90;;;8.23;74.41;101792.81;5095789;28;20130;-72
2023/04/26 02:17:42;;;;;;;14.95;10.68;;;8.20;99.90;;;8.32;74.19;101806.22;5114050;28;20130;-73
2023/04/26 02:20:12;;;;;;;14.55;9.88;;;8.10;99.90;;;8.20;75.22;101806.84;5113929;28;20040;-73
2023/04/26 02:22:40;;;;;;;12.57;9.80;;;8.00;99.90;;;8.05;76.05;101774.88;5095689;28;20089;-73
2023/04/26 02:25:10;;;;;;;14.45;9.85;;;8.00;99.90;;;8.20;76.26;101812.13;5113843;28;20300;-73
2023/04/26 02:27:40;;;;;;;10.93;8.60;;;8.00;99.90;;;8.12;77.41;101807.53;5095610;28;20488;-73
2023/04/26 02:30:10;;;;;;;12.15;9.40;;;7.90;99.90;;;8.06;77.60;101805.66;5113742;28;20040;-73
2023/04/26 02:32:38;;;;;;;12.23;9.30;;;7.80;99.90;;;7.91;78.04;101797.44;5113528;28;20148;-73
2023/04/26 02:35:08;;;;;;;14.02;10.85;;;7.60;99.90;;;7.99;77.99;101803.75;5113715;28;20039;-73
2023/04/26 02:37:37;;;;;;;17.37;11.13;;;7.70;99.90;;;7.99;78.28;101790.56;5113716;28;20070;-73
2023/04/26 02:40:09;;;;;;;14.80;11.07;;;7.70;99.90;;;7.98;78.46;101794.06;5095363;28;20543;-73
2023/04/26 02:42:39;;;;;;;11.68;10.02;;;7.70;99.90;;;8.04;78.51;101804.75;5095384;28;20047;-73
2023/04/26 02:45:08;;;;;;;12.53;9.83;;;7.80;99.90;;;8.02;77.82;101795.91;5113653;28;20043;-73
2023/04/26 02:47:37;;;;;;;18.30;11.45;;;7.80;99.90;;;8.04;77.07;101802.09;5095131;28;20713;-73
2023/04/26 02:50:07;;;;;;;16.73;10.80;;;7.80;99.90;;;7.23;77.39;101666.09;5095179;28;20512;-73
2023/04/26 02:52:37;;;;;;;14.90;10.85;;;7.80;99.90;;;7.96;78.62;101782.63;5095290;28;20043;-73
2023/04/26 02:55:07;;;;;;;12.35;9.32;;;7.70;99.90;;;7.85;79.23;101785.88;5112716;28;20043;-73
2023/04/26 02:57:36;;;;;;;12.13;9.38;;;7.60;99.90;;;7.84;78.99;101779.72;5095264;28;20058;-73
2023/04/26 03:00:12;;;;;;;13.98;10.00;;;7.60;99.90;;;7.89;78.46;101788.63;5095193;28;20096;-73
2023/04/26 03:02:41;;;;;;;19.23;11.40;;;7.70;99.90;;;7.95;77.39;101794.03;5113386;28;20159;-73
2023/04/26 03:05:10;;;;;;;14.23;10.35;;;7.70;99.90;;;7.97;76.79;101792.31;5095384;28;20223;-73
2023/04/26 03:07:38;;;;;;;12.27;9.02;;;7.80;99.90;;;7.97;77.26;101792.31;5094992;28;20553;-73
2023/04/26 03:10:08;;;;;;;9.93;8.00;;;7.80;99.90;;;7.96;77.65;101790.53;5094969;28;20047;-73
2023/04/26 03:12:37;;;;;;;;;;;7.80;99.90;;;7.97;78.60;101791.41;5095595;28;20054;-73
2023/04/26 03:15:08;;;;;;;11.13;8.57;;;7.80;99.90;;;7.90;79.57;101790.38;5094938;28;19923;-73
2023/04/26 03:17:37;;;;;;;9.57;8.60;;;7.70;99.90;;;7.83;79.63;101792.88;5095026;28;20051;-73
2023/04/26 03:20:07;;;;;;;9.43;8.38;;;7.60;99.90;;;7.79;79.08;101791.03;5113146;28;20515;-73
2023/04/26 03:22:36;;;;;;;14.85;9.30;;;7.60;99.90;;;7.83;79.95;101796.41;5094941;28;20138;-73
2023/04/26 03:25:07;;;;;;;14.27;9.90;;;7.50;99.90;;;7.90;79.98;101793.03;5111987;28;20159;-73
2023/04/26 03:27:36;;;;;;;;;;;7.60;99.90;;;7.99;80.03;101790.56;5095357;28;20044;-73
2023/04/26 03:30:06;;;;;;;12.70;9.70;;;7.70;99.90;;;7.96;79.87;101781.72;5094707;28;19981;-73
2023/04/26 03:32:37;;;;;;;13.65;10.35;;;7.70;99.90;;;7.97;79.98;101781.78;5094890;28;20044;-73
2023/04/26 03:35:07;;;;;;;18.08;12.38;;;7.70;99.90;;;7.91;79.79;101780.75;5094804;28;20519;-73
2023/04/26 03:37:38;;;;;;;17.83;12.00;;;7.70;99.90;;;7.92;79.61;101777.25;5094765;28;20154;-73
2023/04/26 03:40:10;;;;;;;16.80;11.13;;;7.60;99.90;;;7.73;79.90;101754.91;5094820;28;20404;-73
2023/04/26 03:42:38;;;;;;;18.38;11.60;;;7.60;99.90;;;7.86;80.19;101774.47;5094687;28;20481;-73
2023/04/26 03:45:08;;;;;;;16.05;11.05;;;7.60;99.90;;;7.89;79.65;101778.09;5112635;28;20040;-73
2023/04/26 03:47:38;;;;;;;14.85;11.65;;;7.60;99.90;;;7.83;79.06;101764.78;5094534;28;20051;-72
2023/04/26 03:50:08;;;;;;;18.75;12.55;;;7.60;99.90;;;7.77;78.79;101769.03;5094541;28;20054;-73
2023/04/26 03:52:37;;;;;;;12.23;10.57;;;7.50;99.90;;;7.81;79.24;101765.59;5112672;28;20051;-73
2023/04/26 03:55:08;;;;;;;17.10;11.02;;;7.60;99.90;;;7.77;79.36;101772.56;5111316;28;20051;-73
2023/04/26 03:57:37;;;;;;;14.55;10.77;;;7.50;99.90;;;7.68;79.19;101750.41;5094644;28;20047;-72
2023/04/26 04:00:10;;;;;;;16.30;10.90;;;7.50;99.90;;;7.81;78.79;101769.13;5094575;28;20048;-73
2023/04/26 04:02:44;;;;;;;13.13;10.43;;;7.60;99.90;;;7.88;78.57;101768.41;5112916;28;20051;-73
2023/04/26 04:05:22;;;;;;;16.08;10.15;;;7.60;99.90;;;7.88;77.59;101770.13;5094613;28;20094;-72
2023/04/26 04:07:51;;;;;;;16.33;10.40;;;7.70;99.90;;;7.87;77.13;101764.00;5096792;28;20066;-72
2023/04/26 04:10:21;;;;;;;18.70;11.60;;;7.70;99.90;;;7.96;76.79;101774.72;5098095;28;20400;-72
2023/04/26 04:12:50;;;;;;;16.42;11.18;;;7.70;99.90;;;8.06;76.82;101776.69;5098215;28;20047;-72
2023/04/26 04:15:20;;;;;;;18.55;11.63;;;7.80;99.90;;;8.10;76.28;101773.25;5098100;28;20085;-73
2023/04/26 04:17:50;;;;;;;;;;;7.90;99.90;;;8.12;76.33;101776.81;5098492;28;20131;-73
2023/04/26 04:20:20;;;;;;;17.77;10.98;;;8.00;99.90;;;8.10;76.10;101775.91;5098033;28;20410;-72
2023/04/26 04:22:48;;;;;;;16.60;11.07;;;8.00;99.90;;;8.11;76.62;101780.28;5098148;28;20146;-72
2023/04/26 04:25:19;;;;;;;10.48;9.30;;;8.00;99.90;;;8.01;78.25;101778.31;5097857;28;20051;-72
2023/04/26 04:27:49;;;;;;;12.57;9.90;;;7.80;99.90;;;7.95;78.78;101783.50;5097883;28;20043;-73
2023/04/26 04:30:18;;;;;;;10.90;8.90;;;7.80;99.90;;;7.97;79.29;101776.50;5097725;28;20054;-73
2023/04/26 04:32:46;;;;;;;11.98;8.77;;;7.70;99.90;;;7.90;79.82;101776.31;5097774;28;20044;-73
2023/04/26 04:35:18;;;;;;;10.23;8.32;;;7.70;99.90;;;7.83;81.02;101782.31;5097685;28;20089;-73
2023/04/26 04:37:48;;;;;;;17.33;11.15;;;7.60;99.90;;;7.87;80.62;101789.44;5097804;28;20113;-72
2023/04/26 04:40:17;;;;;;;17.73;10.32;;;7.60;99.90;;;7.94;79.54;101791.34;5097571;28;20044;-73
2023/04/26 04:42:48;;;;;;;14.57;10.02;;;7.70;99.90;;;7.99;78.59;101780.03;5097363;28;20043;-73
2023/04/26 04:45:18;;;;;;;14.20;9.70;;;7.70;99.90;;;8.05;77.74;101779.28;5097461;28;20054;-73
2023/04/26 04:47:46;;;;;;;11.88;8.75;;;7.80;99.90;;;8.09;77.98;101782.00;5097410;28;20064;-72
2023/04/26 04:50:14;;;;;;;12.90;9.05;;;7.80;99.90;;;8.16;78.36;101786.56;5115705;28;20044;-72
2023/04/26 04:52:45;;;;;;;12.40;8.38;;;7.90;99.90;;;8.11;79.23;101788.19;5097048;28;20044;-73
2023/04/26 04:55:13;;;;;;;10.05;8.27;;;7.80;99.90;;;8.10;79.20;101791.69;5097334;28;20062;-72
2023/04/26 04:57:43;;;;;;;10.50;8.20;;;7.80;99.90;;;8.14;79.22;101782.09;5097546;28;20048;-72
2023/04/26 05:00:14;;;;;;;13.18;9.65;;;7.90;99.90;;;8.18;79.53;101787.47;5097742;28;20119;-73
2023/04/26 05:02:50;;;;;;;10.80;8.43;;;7.90;99.90;;;8.16;80.39;101778.66;5097135;28;20055;-72
2023/04/26 05:05:19;;;;;;;18.08;9.52;;;8.00;99.90;;;8.33;80.33;101786.00;5097101;28;20039;-72
2023/04/26 05:07:49;;;;;;;14.15;9.48;;;8.00;99.90;;;8.28;79.54;101772.78;5097020;28;20043;-73
2023/04/26 05:10:17;;;;;;;15.20;10.20;;;8.00;99.90;;;8.33;79.59;101781.63;5097060;28;20048;-72
2023/04/26 05:12:46;;;;;;;15.45;9.18;;;8.10;99.90;;;8.34;79.75;101772.00;5096818;28;20511;-73
2023/04/26 05:15:14;;;;;;;12.48;9.90;;;8.10;99.90;;;8.29;79.75;101782.44;5096835;28;20039;-72
2023/04/26 05:17:43;;;;;;;15.95;10.60;;;8.10;99.90;;;8.23;79.92;101785.81;5114826;28;20126;-72
2023/04/26 05:20:18;;;;;;;12.00;9.35;;;8.00;99.90;;;8.33;79.72;101786.00;5096700;28;20059;-74
2023/04/26 05:22:48;;;;;;;14.82;10.35;;;8.00;99.90;;;8.37;80.24;101790.50;5096733;28;20104;-73
2023/04/26 05:25:17;;;;;;;14.15;9.30;;;8.10;99.90;;;8.52;80.37;101791.66;5096728;28;20055;-71
2023/04/26 05:27:50;;;;;;;17.27;10.30;;;8.20;99.90;;;8.67;79.79;101801.63;5096709;28;20097;-74
2023/04/26 05:30:37;;;;;;;14.38;9.75;;;8.30;99.90;;;8.72;78.60;101794.66;5096305;28;20504;-73
2023/04/26 05:33:19;;;;;;;15.57;9.57;;;8.40;99.90;;;8.80;78.41;101791.31;5096641;28;20047;-73
2023/04/26 05:35:51;;;;;;;11.75;9.25;;;8.50;99.90;;;8.80;79.46;101793.97;5096611;28;20077;-72
2023/04/26 05:38:23;;;;;;;11.02;9.65;;;8.50;99.90;;;8.92;79.44;101802.06;5114726;28;20059;-73
2023/04/26 05:40:51;;;;;;;10.45;9.10;;;8.60;99.90;;;9.07;79.43;101802.34;5114681;28;20126;-74
2023/04/26 05:43:20;;;;;;;10.65;8.68;;;8.80;99.90;;;9.21;78.45;101809.59;5096234;28;20046;-74
2023/04/26 05:45:52;;;;;;;13.18;9.00;;;8.90;99.90;;;9.25;77.87;101788.56;5114505;28;20524;-79
2023/04/26 05:48:21;;;;;;;10.45;8.32;;;9.10;99.90;;;9.51;78.11;101815.34;5114616;28;20052;-76
2023/04/26 05:50:51;;;;;;;10.23;8.07;;;9.20;99.90;;;9.59;77.56;101814.59;5095956;28;20504;-78
2023/04/26 05:53:20;;;;;;;14.38;8.23;;;9.30;99.90;;;9.59;76.80;101814.59;5096474;28;20108;-78
2023/04/26 05:55:50;;;;;;;11.80;8.02;;;9.30;99.90;;;9.63;76.28;101805.84;5096075;28;20511;-77
2023/04/26 05:58:18;;;;;;;13.70;8.57;;;9.40;99.90;;;9.79;75.81;101821.03;5096379;28;20082;-79
2023/04/26 06:00:47;;;;;;;13.38;8.55;;;9.50;99.90;;;9.80;75.68;101824.56;5095933;28;20047;-77
2023/04/26 06:03:15;;;;;;;13.75;8.63;;;9.50;99.90;;;9.77;76.78;101817.50;5095608;28;20079;-78
2023/04/26 06:05:44;;;;;;;13.07;8.82;;;9.50;99.90;;;9.83;76.46;101822.00;5096005;28;20043;-78
2023/04/26 06:08:12;;;;;;;13.43;8.70;;;9.60;99.90;;;9.94;76.15;101826.56;5095977;28;20043;-78
2023/04/26 06:10:41;;;;;;;14.07;8.98;;;9.70;99.90;;;10.01;76.44;101833.69;5114143;28;20122;-77
2023/04/26 06:13:10;;;;;;;14.20;8.35;;;9.80;99.90;;;9.97;76.80;101831.88;5096037;28;20058;-80
2023/04/26 06:15:39;;;;;;;11.40;8.15;;;9.70;99.90;;;10.07;76.56;101834.63;5114055;28;20120;-77
2023/04/26 06:18:08;;;;;;;14.35;9.52;;;9.80;99.90;;;10.14;77.23;101836.53;5095607;28;20192;-77
2023/04/26 06:20:36;;;;;;;12.05;8.02;;;9.80;99.90;;;10.17;78.05;101832.16;5095676;28;20048;-78
2023/04/26 06:23:07;;;;;;;11.77;7.95;;;9.80;99.90;;;10.30;77.56;101839.38;5095538;28;20050;-80
2023/04/26 06:25:35;;;;;;;13.80;8.35;;;10.00;99.90;;;10.28;77.19;101834.94;5113541;28;20047;-79
2023/04/26 06:28:05;;;;;;;11.32;8.02;;;10.00;99.90;;;10.42;76.73;101847.47;5095426;28;20039;-79
2023/04/26 06:30:34;;;;;;;13.88;8.30;;;10.10;99.90;;;10.18;74.49;101814.56;5112820;28;20560;-80
2023/04/26 06:33:03;;;;;;;14.25;7.60;;;10.00;99.90;;;10.34;73.22;101841.19;5095614;28;20405;-79
2023/04/26 06:35:33;;;;;;;13.15;7.70;;;10.00;99.90;;;10.38;70.69;101852.69;5095175;28;20122;-80
2023/04/26 06:38:02;;;;;;;12.88;6.95;;;10.00;99.90;;;10.39;69.89;101842.16;5094902;28;20054;-82
2023/04/26 06:40:31;;;;;;;10.85;6.25;;;10.00;99.90;;;10.59;67.98;101839.69;5095346;28;20477;-78
2023/04/26 06:42:59;;;;;;;9.20;6.07;;;10.20;99.90;;;10.72;67.46;101834.56;5095275;28;20054;-83
2023/04/26 06:45:31;;;;;;;10.93;5.90;;;10.40;99.90;;;10.89;66.73;101842.69;5113453;28;20051;-86
2023/04/26 06:48:03;;;;;;;11.15;5.70;;;10.50;99.90;;;10.72;64.97;101839.84;5095045;28;20078;-77
2023/04/26 06:50:37;;;;;;;8.60;6.03;;;10.50;99.90;;;10.69;65.69;101844.22;5095396;28;20052;-77
2023/04/26 06:53:06;;;;;;;8.75;5.03;;;10.40;99.90;;;10.65;63.82;101834.47;5113553;28;20046;-78
2023/04/26 06:55:34;;;;;;;11.52;5.10;;;10.50;99.90;;;10.71;63.76;101840.75;5113115;28;20085;-76
2023/04/26 06:58:03;;;;;;;6.85;4.55;;;10.40;99.90;;;10.95;62.70;101836.56;5113391;28;20476;-76
2023/04/26 07:00:31;;;;;;;10.38;4.63;;;10.60;99.90;;;9.98;61.58;101721.75;5113054;28;20043;-76
2023/04/26 07:03:00;;;;;;;6.72;4.47;;;10.40;99.90;;;10.48;60.92;101831.66;5113267;28;20036;-78
2023/04/26 07:05:30;;;;;;;5.85;4.47;;;10.20;99.90;;;10.50;61.06;101844.91;5095155;28;20058;-79
2023/04/26 07:07:58;;;;;;;8.20;4.65;;;10.20;99.90;;;10.69;61.54;101836.28;5113226;28;20481;-79
2023/04/26 07:10:27;;;;;;;8.10;4.68;;;10.30;99.90;;;10.85;61.62;101840.88;5113024;28;20040;-79
2023/04/26 07:12:55;;;;;;;9.82;4.38;;;10.50;99.90;;;10.96;60.24;101846.25;5094885;28;20130;-78
2023/04/26 07:15:23;;;;;;;16.15;5.32;;;10.60;99.90;;;10.78;59.88;101844.34;5112917;28;20044;-79
2023/04/26 07:17:52;;;;;;;5.90;4.10;;;10.50;99.90;;;10.76;59.29;101844.31;5113168;28;20035;-78
2023/04/26 07:20:21;;;;;;;7.22;4.65;;;10.50;99.90;;;10.86;59.88;101845.28;5113034;28;20057;-75
2023/04/26 07:22:51;;;;;;;6.20;4.53;;;10.60;99.90;;;10.73;58.90;101852.22;5094845;28;20150;-79
2023/04/26 07:25:19;;;;;;;10.87;4.73;;;10.50;99.90;;;10.83;60.26;101851.47;5095370;28;20055;-74
2023/04/26 07:27:50;;;;;;;6.45;4.50;;;10.50;99.90;;;10.99;59.60;101849.84;5112835;28;20093;-73
2023/04/26 07:30:18;;;;;;;;;;;10.60;99.90;;;11.00;58.32;101851.63;5113345;28;20802;-72
2023/04/26 07:32:46;;;;;;;12.23;4.82;;;10.70;99.90;;;10.92;58.67;101845.34;5112988;28;19958;-72
2023/04/26 07:35:15;;;;;;;6.97;4.53;;;10.70;99.90;;;11.13;58.52;101842.91;5112732;28;20188;-72
2023/04/26 07:37:44;;;;;;;9.30;4.50;;;10.80;99.90;;;11.11;57.08;101860.53;5112713;28;20043;-73
2023/04/26 07:40:14;;;;;;;7.72;4.63;;;10.80;99.90;;;10.98;56.97;101850.69;5112628;28;20059;-72
2023/04/26 07:42:43;;;;;;;8.68;4.45;;;10.70;99.90;;;10.81;56.70;101861.13;5116541;28;20050;-72
2023/04/26 07:45:12;;;;;;;6.97;4.40;;;10.60;99.90;;;10.76;57.00;101861.97;5116711;28;20047;-72
2023/04/26 07:47:41;;;;;;;7.45;4.65;;;10.50;99.90;;;10.56;57.89;101853.81;5116633;28;20508;-71
2023/04/26 07:50:11;;;;;;;8.55;4.60;;;10.40;99.90;;;10.55;57.08;101854.66;5117304;28;20043;-73
2023/04/26 07:52:39;;;;;;;8.90;4.63;;;10.30;99.90;;;10.60;57.16;101855.63;5116512;28;20066;-73
2023/04/26 07:55:08;;;;;;;11.25;4.88;;;10.30;99.90;;;10.94;57.19;101861.28;5116533;28;20504;-72
2023/04/26 07:57:38;;;;;;;6.45;4.28;;;10.60;99.90;;;10.71;55.79;101853.97;5098690;28;20062;-73
2023/04/26 08:00:09;;;;;;;5.03;4.23;;;10.40;99.90;;;10.70;55.66;101861.91;5117099;28;20119;-72
2023/04/26 08:02:39;;;;;;;9.88;4.22;;;10.40;99.90;;;10.76;55.48;101867.25;5099041;28;20092;-72
2023/04/26 08:05:12;;;;;;;6.05;4.35;;;10.50;99.90;;;10.90;55.29;101866.50;5116652;28;20118;-72
2023/04/26 08:07:42;;;;;;;6.53;4.13;;;10.60;99.90;;;10.63;54.96;101849.44;5116337;28;20051;-72
2023/04/26 08:10:11;;;;;;;8.40;4.55;;;10.50;99.90;;;10.86;55.07;101869.09;5116433;28;20047;-73
2023/04/26 08:12:41;;;;;;;10.48;4.50;;;10.60;99.90;;;11.05;54.53;101872.84;5116301;28;20408;-73
2023/04/26 08:15:11;;;;;;;9.27;4.97;;;10.70;99.90;;;11.00;55.67;101861.31;5116138;28;20496;-72
2023/04/26 08:17:40;;;;;;;9.25;4.40;;;10.70;99.90;;;11.09;55.20;101856.97;5116455;28;20055;-72
2023/04/26 08:20:10;;;;;;;6.07;4.20;;;10.90;99.90;;;11.27;54.92;101866.84;5116175;28;20489;-72
2023/04/26 08:22:38;;;;;;;10.73;4.20;;;11.00;99.90;;;11.23;54.88;101862.41;5115885;28;20067;-72
2023/04/26 08:25:08;;;;;;;9.77;4.65;;;11.00;99.90;;;10.99;56.56;101864.84;5115823;28;20043;-72
2023/04/26 08:27:36;;;;;;;6.75;4.43;;;10.90;99.90;;;11.03;56.09;101866.66;5098201;28;20048;-73
2023/04/26 08:30:08;;;;;;;6.05;4.15;;;10.80;99.90;;;10.95;55.02;101866.56;5116204;28;20385;-72
2023/04/26 08:32:37;;;;;;;9.95;4.40;;;10.70;99.90;;;11.11;55.56;101872.91;5115884;28;20035;-72
2023/04/26 08:35:06;;;;;;;6.78;3.85;;;10.80;99.90;;;11.13;55.11;101864.09;5097768;28;20456;-73
2023/04/26 08:37:36;;;;;;;9.40;4.55;;;10.90;99.90;;;11.17;56.16;101857.94;5115647;28;20043;-72
2023/04/26 08:40:08;;;;;;;8.07;4.80;;;10.90;99.90;;;11.30;55.47;101861.59;5115666;28;20385;-72
2023/04/26 08:42:42;;;;;;;5.95;4.40;;;11.10;99.90;;;11.46;55.39;101853.78;5115606;28;20043;-72
2023/04/26 08:45:12;;;;;;;4.72;4.13;;;11.20;99.90;;;11.57;55.14;101852.13;5115338;28;20044;-72
2023/04/26 08:47:44;;;;;;;5.43;4.03;;;11.30;99.90;;;11.78;54.38;101860.25;5115147;28;20408;-72
2023/04/26 08:50:15;;;;;;;9.23;4.20;;;11.50;99.90;;;11.65;54.11;101866.31;5097762;28;20051;-72
2023/04/26 08:52:44;;;;;;;6.05;4.50;;;11.40;99.90;;;11.72;53.13;101870.81;5114957;28;20092;-72
2023/04/26 08:55:15;;;;;;;7.13;4.15;;;11.40;99.90;;;11.63;52.64;101862.72;5115670;28;20443;-72
2023/04/26 08:57:43;;;;;;;;;;;11.40;99.90;;;11.33;53.22;101865.16;5116080;28;20096;-72
2023/04/26 09:00:15;;;;;;;8.32;4.43;;;11.20;99.90;;;11.51;53.97;101872.38;5115390;28;19949;-73
2023/04/26 09:02:49;;;;;;;8.57;4.70;;;11.20;99.90;;;11.66;53.96;101862.81;5096937;28;20519;-72
2023/04/26 09:05:22;;;;;;;5.97;4.72;;;11.40;99.90;;;11.71;54.69;101868.16;5115608;28;20043;-72
2023/04/26 09:07:54;;;;;;;8.38;4.65;;;11.40;99.90;;;11.72;55.01;101865.50;5115776;28;20403;-73
2023/04/26 09:10:22;;;;;;;8.02;4.68;;;11.50;99.90;;;11.68;55.21;101869.00;5097101;28;20048;-72
2023/04/26 09:12:53;;;;;;;8.02;4.57;;;11.50;99.90;;;11.77;55.43;101866.41;5114910;28;20064;-72
2023/04/26 09:15:25;;;;;;;8.80;5.30;;;11.50;99.90;;;11.76;55.42;101875.25;5115271;28;20039;-72
2023/04/26 09:17:54;;;;;;;7.70;4.78;;;11.50;99.90;;;11.82;55.32;101869.09;5097329;28;20047;-72
2023/04/26 09:20:25;;;;;;;8.60;4.93;;;11.50;99.90;;;11.74;55.36;101869.06;5115152;28;20063;-72
2023/04/26 09:23:04;;;;;;;7.97;4.80;;;11.50;99.90;;;11.83;55.47;101862.03;5115035;28;20043;-72
2023/04/26 09:25:33;;;;;;;7.75;5.07;;;11.50;99.90;;;11.89;55.72;101864.72;5114868;28;20044;-72
2023/04/26 09:28:04;;;;;;;6.57;4.45;;;11.60;99.90;;;11.96;56.06;101869.19;5096634;28;20043;-72
2023/04/26 09:30:39;;;;;;;8.05;5.25;;;11.70;99.90;;;11.92;56.70;101867.41;5115201;28;20039;-72
2023/04/26 09:33:08;;;;;;;6.25;4.78;;;11.70;99.90;;;11.87;57.31;101866.47;5114849;28;20039;-72
2023/04/26 09:35:39;;;;;;;8.43;4.70;;;11.60;99.90;;;11.93;57.92;101867.41;5096760;28;20047;-72
2023/04/26 09:38:11;;;;;;;10.05;5.10;;;11.70;99.90;;;11.93;58.35;101862.09;5096476;28;20596;-72
2023/04/26 09:40:43;;;;;;;8.50;4.80;;;11.70;99.90;;;11.85;58.63;101860.25;5096645;28;20051;-72
2023/04/26 09:43:14;;;;;;;8.88;4.82;;;11.70;99.90;;;11.97;58.53;101863.00;5114702;28;20048;-72
2023/04/26 09:45:51;;;;;;;9.52;4.68;;;11.80;99.90;;;11.99;58.59;101869.19;5114284;28;20469;-72
2023/04/26 09:48:24;;;;;;;11.18;4.90;;;11.80;99.90;;;11.96;59.04;101845.31;5114207;28;20047;-72
2023/04/26 09:50:54;;;;;;;5.60;4.68;;;11.80;99.90;;;11.85;59.00;101823.13;5114599;28;20040;-72
2023/04/26 09:53:30;;;;;;;8.65;4.88;;;11.90;99.90;;;12.28;59.21;101878.19;5114471;28;20063;-72
2023/04/26 09:56:08;;;;;;;8.07;4.72;;;12.10;99.90;;;12.43;58.23;101876.50;5114492;28;20140;-72
2023/04/26 09:58:39;;;;;;;6.80;4.38;;;12.20;99.90;;;12.64;58.35;101875.69;5114213;28;20782;-72
2023/04/26 10:01:10;;;;;;;5.45;4.30;;;12.40;99.90;;;12.57;56.35;101876.56;5114168;28;20048;-72
2023/04/26 10:03:40;;;;;;;7.15;4.88;;;12.50;99.90;;;12.54;54.84;101872.09;5113874;28;20516;-72
2023/04/26 10:06:09;;;;;;;15.15;4.65;;;12.40;99.90;;;12.71;56.10;101877.50;5114194;28;20044;-72
2023/04/26 10:08:37;;;;;;;6.55;5.00;;;12.50;99.90;;;12.82;55.31;101875.75;5113894;28;20050;-72
2023/04/26 10:11:09;;;;;;;7.63;4.60;;;12.60;99.90;;;12.96;54.52;101866.03;5095889;28;20504;-72
2023/04/26 10:13:37;;;;;;;8.57;4.60;;;12.80;99.90;;;12.24;54.92;101874.66;5095821;28;20044;-72
2023/04/26 10:16:08;;;;;;;7.78;4.75;;;12.20;99.90;;;12.34;55.78;101867.63;5114075;28;20043;-72
2023/04/26 10:18:37;;;;;;;7.32;5.15;;;12.10;99.90;;;12.40;55.91;101875.59;5113777;28;20123;-72
2023/04/26 10:21:13;;;;;;;7.18;4.32;;;12.00;99.90;;;12.10;54.80;101871.03;5095619;28;20143;-72
2023/04/26 10:23:42;;;;;;;6.20;4.18;;;12.00;99.90;;;12.07;53.51;101881.63;5113686;28;20078;-72
2023/04/26 10:26:47;;;;;;;10.63;5.18;;;11.80;99.90;;;12.17;53.47;101877.25;5113867;28;20500;-73